Saint Matthews, South Carolina
Current Conditions -  °F | °C
As of 7:53 PM on Wednesday 22 Oct 2014 (Local Time) from KOGB Reporting Station
Clear Clear  
Wind Chill: 55°   Ceiling: Unl
Heat Index: 55°   Visibility: 10mi
Dew Point: 44°   Wind: 0mph
Humidity: 67%   Direction: NA
Pressure: 30.05"   Gusts: NA
Location:  33.66°N, 80.78°W
Report Text: KOGB 222353Z AUTO 00000KT 10SM CLR 13/07 A3005 RMK AO2 SLP175 T01280067 10206 20128 53012
Loading
Personal Weather Stations






























Interactive Weather Map
Tropical Storm Tracking
New forecast layout! Learn more

10-Day Weather Forecast

Advertisements
Track Severe Weather on mobile